Time;durP1;ratioP1;P1;durP2;ratioP2;P2;SDS_P1;SDS_P2;PMS_P1;PMS_P2;Temp;Humidity;BMP_temperature;BMP_pressure;BME280_temperature;BME280_humidity;BME280_pressure;Samples;Min_cycle;Max_cycle;Signal;HPM_P1;HPM_P2
2024/01/30 00:02:32;;;;;;;13.18;7.57;;;;;;;5.40;100.00;101133.72;12182801;19;19911;-81
2024/01/30 00:06:34;;;;;;;14.95;7.22;;;;;;;5.39;100.00;101131.19;12207609;19;20011;-82
2024/01/30 00:10:36;;;;;;;16.90;7.10;;;;;;;5.39;100.00;101129.28;12207187;19;20010;-79
2024/01/30 00:14:43;;;;;;;12.82;7.30;;;;;;;5.38;100.00;101130.31;12195799;19;20047;-81
2024/01/30 00:18:47;;;;;;;13.20;7.68;;;;;;;5.33;100.00;101132.75;12206859;19;20013;-81
2024/01/30 00:22:49;;;;;;;;;;;;;;;5.27;100.00;101133.50;12208890;19;20021;-81
2024/01/30 00:26:52;;;;;;;15.75;7.93;;;;;;;5.21;100.00;101135.06;12182466;19;20013;-81
2024/01/30 00:30:54;;;;;;;13.85;7.50;;;;;;;5.16;100.00;101140.22;12204616;19;20462;-81
2024/01/30 00:34:58;;;;;;;11.95;6.72;;;;;;;5.08;100.00;101145.75;12181549;19;20024;-81
2024/01/30 00:39:00;;;;;;;15.40;7.77;;;;;;;4.97;100.00;101143.44;12203690;19;20064;-82
2024/01/30 00:43:02;;;;;;;11.30;6.55;;;;;;;4.92;100.00;101141.25;12200773;19;20043;-81
2024/01/30 00:47:05;;;;;;;12.38;7.15;;;;;;;4.87;100.00;101140.09;12178242;19;20493;-80
2024/01/30 00:51:07;;;;;;;20.38;7.35;;;;;;;4.78;100.00;101148.31;12204373;19;20011;-80
2024/01/30 00:55:10;;;;;;;14.38;7.95;;;;;;;4.71;100.00;101141.03;12224622;19;20350;-81
2024/01/30 00:59:12;;;;;;;13.38;8.00;;;;;;;4.64;100.00;101135.44;12182227;19;20341;-81
2024/01/30 01:03:13;;;;;;;13.73;8.23;;;;;;;4.60;100.00;101134.09;12222627;19;20002;-79
2024/01/30 01:07:17;;;;;;;12.88;7.20;;;;;;;4.57;100.00;101143.47;12225685;19;20014;-82
2024/01/30 01:11:18;;;;;;;16.77;8.40;;;;;;;4.54;100.00;101143.84;12178133;19;20011;-80
2024/01/30 01:15:20;;;;;;;16.33;8.43;;;;;;;4.49;100.00;101139.94;12204795;19;20331;-81
2024/01/30 01:19:23;;;;;;;15.90;7.80;;;;;;;4.41;100.00;101138.09;12201860;19;20085;-80
2024/01/30 01:23:25;;;;;;;14.43;7.07;;;;;;;4.34;100.00;101148.00;12181552;19;20371;-80
2024/01/30 01:27:27;;;;;;;16.67;8.52;;;;;;;4.25;100.00;101143.63;12196908;19;20023;-80
2024/01/30 01:31:29;;;;;;;17.55;8.48;;;;;;;4.23;100.00;101148.41;12197052;19;20003;-80
2024/01/30 01:35:31;;;;;;;20.45;8.93;;;;;;;4.20;100.00;101146.88;12179824;19;20045;-81
2024/01/30 01:39:33;;;;;;;18.10;9.10;;;;;;;4.16;100.00;101141.94;12196559;19;20013;-81
2024/01/30 01:43:35;;;;;;;12.73;7.43;;;;;;;4.10;100.00;101140.75;12191630;19;20011;-80
2024/01/30 01:47:37;;;;;;;16.02;8.18;;;;;;;4.02;100.00;101136.19;12177878;19;19999;-80
2024/01/30 01:51:41;;;;;;;13.52;7.40;;;;;;;3.96;100.00;101133.31;12196631;19;20010;-81
2024/01/30 01:55:45;;;;;;;14.18;7.95;;;;;;;3.90;100.00;101129.41;12197327;19;20003;-81
2024/01/30 01:59:49;;;;;;;16.52;8.48;;;;;;;3.84;100.00;101130.97;12170695;19;20510;-80
2024/01/30 02:03:52;;;;;;;17.77;8.05;;;;;;;3.81;100.00;101127.75;12196801;19;20949;-81
2024/01/30 02:07:56;;;;;;;13.13;7.57;;;;;;;3.81;100.00;101120.41;12180072;19;20014;-79
2024/01/30 02:11:57;;;;;;;16.27;8.43;;;;;;;3.83;100.00;101123.78;12196056;19;20010;-80
2024/01/30 02:16:00;;;;;;;14.55;8.30;;;;;;;3.83;100.00;101131.13;12186892;19;20018;-81
2024/01/30 02:20:03;;;;;;;16.38;8.40;;;;;;;3.84;100.00;101130.13;12176270;19;20040;-80
2024/01/30 02:24:05;;;;;;;16.00;7.75;;;;;;;3.78;100.00;101131.66;12196570;19;20007;-80
2024/01/30 02:28:07;;;;;;;14.05;7.90;;;;;;;3.73;100.00;101127.75;12196163;19;20007;-81
2024/01/30 02:32:10;;;;;;;17.02;7.97;;;;;;;3.71;100.00;101129.78;12173345;19;20031;-80
2024/01/30 02:36:12;;;;;;;15.45;7.53;;;;;;;3.65;100.00;101123.13;12196139;19;20007;-79
2024/01/30 02:40:15;;;;;;;13.80;7.57;;;;;;;3.59;100.00;101132.84;12192979;19;20020;-79
2024/01/30 02:44:17;;;;;;;16.30;7.43;;;;;;;3.54;100.00;101124.38;12174261;19;20082;-79
2024/01/30 02:48:19;;;;;;;13.57;8.73;;;;;;;3.50;100.00;101127.59;12219986;19;20726;-80
2024/01/30 02:52:21;;;;;;;20.85;8.02;;;;;;;3.44;100.00;101123.69;12200796;19;20015;-80
2024/01/30 02:56:24;;;;;;;16.55;8.52;;;;;;;3.41;100.00;101124.88;12176085;19;20007;-82
2024/01/30 03:00:25;;;;;;;17.15;8.13;;;;;;;3.41;100.00;101122.13;12201600;19;20006;-80
2024/01/30 03:04:30;;;;;;;16.27;7.93;;;;;;;3.39;100.00;101123.31;12204447;19;20010;-79
2024/01/30 03:08:32;;;;;;;13.80;7.20;;;;;;;3.35;100.00;101120.09;12188644;19;20011;-80
2024/01/30 03:12:33;;;;;;;13.43;7.60;;;;;;;3.29;100.00;101118.06;12203545;19;20010;-81
2024/01/30 03:16:35;;;;;;;15.77;7.93;;;;;;;3.29;100.00;101122.66;12209270;19;20023;-79
2024/01/30 03:20:38;;;;;;;13.38;7.88;;;;;;;3.26;100.00;101123.00;12185396;19;20352;-80
2024/01/30 03:24:40;;;;;;;9.90;5.20;;;;;;;3.19;100.00;101120.97;12204634;19;20009;-79
2024/01/30 03:28:42;;;;;;;14.23;7.75;;;;;;;3.15;100.00;101114.16;12205475;19;20266;-80
2024/01/30 03:32:44;;;;;;;22.30;8.98;;;;;;;3.12;100.00;101113.63;12179248;19;20006;-80
2024/01/30 03:36:45;;;;;;;10.47;5.20;;;;;;;3.07;100.00;101108.69;12204618;19;20002;-79
2024/01/30 03:40:47;;;;;;;17.92;8.13;;;;;;;3.04;100.00;101106.31;12202005;19;20074;-80
2024/01/30 03:44:53;;;;;;;16.07;7.83;;;;;;;3.01;100.00;101109.38;12183830;19;20030;-80
2024/01/30 03:48:55;;;;;;;16.27;8.38;;;;;;;3.02;100.00;101121.13;12204829;19;20074;-80
2024/01/30 03:52:58;;;;;;;15.45;8.30;;;;;;;3.01;100.00;101117.56;12206802;19;20029;-79
2024/01/30 03:57:00;;;;;;;16.67;7.18;;;;;;;2.99;100.00;101110.56;12183322;19;20014;-79
2024/01/30 04:01:03;;;;;;;21.40;8.45;;;;;;;2.95;100.00;101107.34;12203640;19;20011;-80
2024/01/30 04:05:06;;;;;;;16.98;8.40;;;;;;;2.93;100.00;101112.94;12180717;19;20015;-79
2024/01/30 04:09:08;;;;;;;;;;;;;;;2.91;100.00;101111.41;12205841;19;20030;-79
2024/01/30 04:13:10;;;;;;;17.95;7.30;;;;;;;2.89;100.00;101108.84;12199599;19;19911;-80
2024/01/30 04:17:13;;;;;;;16.63;7.78;;;;;;;2.86;100.00;101102.91;12182655;19;20011;-79
2024/01/30 04:21:15;;;;;;;13.07;7.93;;;;;;;2.80;100.00;101111.75;12216588;19;20010;-78
2024/01/30 04:25:16;;;;;;;10.27;5.78;;;;;;;2.76;100.00;101115.78;12251634;19;20010;-80
2024/01/30 04:29:19;;;;;;;16.77;8.47;;;;;;;2.74;100.00;101111.38;12187486;19;20525;-80
2024/01/30 04:33:22;;;;;;;13.50;8.05;;;;;;;2.75;100.00;101112.22;12203548;19;20010;-80
2024/01/30 04:37:24;;;;;;;16.10;8.07;;;;;;;2.76;100.00;101107.63;12214258;19;20504;-81
2024/01/30 04:41:31;;;;;;;17.73;8.98;;;;;;;2.76;100.00;101100.31;12194907;19;20015;-81
2024/01/30 04:45:33;;;;;;;18.95;8.80;;;;;;;2.78;100.00;101109.16;12204682;19;20006;-80
2024/01/30 04:49:35;;;;;;;12.03;6.87;;;;;;;2.77;100.00;101110.19;12204027;19;20003;-79
2024/01/30 04:53:39;;;;;;;15.17;7.67;;;;;;;2.79;100.00;101119.03;12182896;19;20003;-80
2024/01/30 04:57:41;;;;;;;16.95;7.90;;;;;;;2.81;100.00;101116.16;12202959;19;20632;-80
2024/01/30 05:01:43;;;;;;;15.30;8.40;;;;;;;2.80;100.00;101119.91;12202031;19;20066;-80
2024/01/30 05:05:45;;;;;;;20.10;9.03;;;;;;;2.79;100.00;101123.63;12182722;19;20742;-80
2024/01/30 05:09:47;;;;;;;16.80;8.73;;;;;;;2.82;100.00;101129.59;12203033;19;20264;-80
2024/01/30 05:13:48;;;;;;;18.20;9.30;;;;;;;2.85;100.00;101126.53;12206025;19;20141;-80
2024/01/30 05:17:51;;;;;;;17.23;8.57;;;;;;;2.80;100.00;101130.78;12180065;19;20367;-80
2024/01/30 05:21:53;;;;;;;14.67;8.07;;;;;;;2.82;100.00;101123.28;12198106;19;20066;-80
2024/01/30 05:25:57;;;;;;;13.45;7.53;;;;;;;2.83;100.00;101134.03;12216477;19;20011;-79
2024/01/30 05:29:59;;;;;;;14.30;8.25;;;;;;;2.83;100.00;101125.00;12220631;19;20057;-78
2024/01/30 05:34:06;;;;;;;19.65;8.80;;;;;;;2.83;100.00;101127.75;12237528;19;21586;-79
2024/01/30 05:38:08;;;;;;;15.45;8.52;;;;;;;2.79;100.00;101131.78;12178739;19;20082;-79
2024/01/30 05:42:10;;;;;;;21.35;9.57;;;;;;;2.78;100.00;101130.09;12197393;19;20006;-80
2024/01/30 05:46:12;;;;;;;12.07;6.23;;;;;;;2.81;100.00;101130.59;12201578;19;20107;-80
2024/01/30 05:50:14;;;;;;;15.13;8.52;;;;;;;2.82;100.00;101126.84;12179850;19;20255;-80
2024/01/30 05:54:18;;;;;;;16.52;8.90;;;;;;;2.84;100.00;101124.00;12199357;19;20567;-80
2024/01/30 05:58:21;;;;;;;16.98;8.52;;;;;;;2.82;100.00;101132.31;12225277;19;20002;-78
2024/01/30 06:02:25;;;;;;;18.35;8.60;;;;;;;2.84;100.00;101127.56;12231501;19;20530;-79
2024/01/30 06:06:28;;;;;;;15.98;8.93;;;;;;;2.85;100.00;101134.69;12250033;19;20055;-80
2024/01/30 06:10:30;;;;;;;17.30;8.40;;;;;;;2.85;100.00;101133.84;12250304;19;20009;-77
2024/01/30 06:14:33;;;;;;;18.30;10.07;;;;;;;2.86;100.00;101139.13;12231251;19;20031;-77
2024/01/30 06:18:38;;;;;;;19.48;9.43;;;;;;;2.86;100.00;101128.25;12252269;19;20038;-78
2024/01/30 06:22:43;;;;;;;16.48;9.10;;;;;;;2.87;100.00;101121.78;12251363;19;19999;-79
2024/01/30 06:26:46;;;;;;;17.80;9.10;;;;;;;2.90;100.00;101126.88;12225146;19;20014;-78
2024/01/30 06:30:54;;;;;;;16.55;9.32;;;;;;;2.94;100.00;101135.56;12231192;19;20445;-79
2024/01/30 06:35:00;;;;;;;17.73;9.43;;;;;;;2.99;100.00;101127.75;12234986;19;20003;-80
2024/01/30 06:39:04;;;;;;;19.85;9.25;;;;;;;3.04;100.00;101125.38;12200116;19;20017;-81
2024/01/30 06:43:07;;;;;;;20.05;10.13;;;;;;;3.07;100.00;101116.88;12228465;19;19998;-80
2024/01/30 06:47:10;;;;;;;20.02;9.30;;;;;;;3.16;100.00;101125.91;12192734;19;20018;-80
2024/01/30 06:51:14;;;;;;;21.73;9.95;;;;;;;3.24;100.00;101125.88;12209140;19;20007;-79
2024/01/30 06:55:18;;;;;;;21.30;10.60;;;;;;;3.29;100.00;101131.69;12204449;19;20022;-80
2024/01/30 06:59:20;;;;;;;20.55;10.75;;;;;;;3.35;100.00;101138.31;12181252;19;20721;-80
2024/01/30 07:03:22;;;;;;;20.00;10.93;;;;;;;3.42;100.00;101142.94;12192880;19;20083;-79
2024/01/30 07:07:26;;;;;;;24.65;9.90;;;;;;;3.45;100.00;101141.75;12168261;19;20375;-79
2024/01/30 07:11:28;;;;;;;21.25;9.82;;;;;;;3.50;100.00;101138.50;12186481;19;20027;-79
2024/01/30 07:15:30;;;;;;;17.33;10.60;;;;;;;3.53;100.00;101143.59;12200456;19;20462;-79
2024/01/30 07:19:32;;;;;;;17.33;9.13;;;;;;;3.56;100.00;101148.72;12199821;19;20022;-79
2024/01/30 07:23:34;;;;;;;19.80;9.63;;;;;;;3.57;100.00;101145.81;12177959;19;20018;-79
2024/01/30 07:27:36;;;;;;;18.23;10.10;;;;;;;3.58;100.00;101136.63;12203422;19;20426;-80
2024/01/30 07:31:38;;;;;;;22.07;9.53;;;;;;;3.64;100.00;101141.38;12199214;19;20010;-80
2024/01/30 07:35:40;;;;;;;18.53;9.30;;;;;;;3.69;100.00;101135.44;12175527;19;20644;-80
2024/01/30 07:39:42;;;;;;;18.50;9.40;;;;;;;3.77;100.00;101140.00;12226938;19;20263;-80
2024/01/30 07:43:44;;;;;;;20.57;9.90;;;;;;;3.83;100.00;101134.69;12226418;19;20366;-80
2024/01/30 07:47:47;;;;;;;17.70;10.00;;;;;;;3.91;100.00;101144.75;12188364;19;20006;-80
2024/01/30 07:51:48;;;;;;;25.70;10.70;;;;;;;3.98;100.00;101144.88;12209005;19;20417;-80
2024/01/30 07:55:52;;;;;;;17.02;9.65;;;;;;;4.00;100.00;101162.78;12209696;19;20014;-80
2024/01/30 07:59:54;;;;;;;22.27;9.55;;;;;;;4.04;100.00;101158.69;12189894;19;20010;-79
2024/01/30 08:03:55;;;;;;;17.10;9.35;;;;;;;4.12;100.00;101163.28;12206192;19;21324;-79
2024/01/30 08:07:57;;;;;;;19.80;9.27;;;;;;;4.22;100.00;101165.78;12211400;19;20027;-80
2024/01/30 08:11:59;;;;;;;16.43;9.30;;;;;;;4.32;100.00;101163.72;12186535;19;20043;-80
2024/01/30 08:16:01;;;;;;;16.42;9.30;;;;;;;4.36;100.00;101172.41;12209983;19;20067;-80
2024/01/30 08:20:06;;;;;;;21.48;11.02;;;;;;;4.34;100.00;101173.44;12203739;19;20017;-80
2024/01/30 08:24:08;;;;;;;19.13;10.80;;;;;;;4.44;100.00;101178.69;12198884;19;20385;-81
2024/01/30 08:28:10;;;;;;;14.20;7.90;;;;;;;4.61;100.00;101175.88;12209039;19;20030;-80
2024/01/30 08:32:12;;;;;;;17.73;9.67;;;;;;;4.78;100.00;101174.78;12187126;19;20040;-80
2024/01/30 08:36:17;;;;;;;20.77;10.90;;;;;;;4.92;100.00;101176.75;12207366;19;19998;-80
2024/01/30 08:40:19;;;;;;;20.25;11.23;;;;;;;5.12;100.00;101170.84;12206341;19;20010;-80
2024/01/30 08:44:21;;;;;;;17.90;9.70;;;;;;;5.35;100.00;101163.47;12185391;19;20010;-80
2024/01/30 08:48:22;;;;;;;15.45;7.70;;;;;;;5.56;100.00;101165.56;12208025;19;20033;-79
2024/01/30 08:52:27;;;;;;;16.17;10.43;;;;;;;5.80;100.00;101169.94;12205825;19;20642;-80
2024/01/30 08:56:32;;;;;;;18.77;10.13;;;;;;;5.98;100.00;101168.75;12183787;19;20030;-79
2024/01/30 09:00:34;;;;;;;16.65;10.00;;;;;;;6.14;100.00;101165.88;12204545;19;20030;-80
2024/01/30 09:04:36;;;;;;;19.00;10.57;;;;;;;6.31;100.00;101174.75;12206430;19;20027;-80
2024/01/30 09:08:41;;;;;;;19.38;10.77;;;;;;;6.46;100.00;101164.66;12186599;19;20386;-80
2024/01/30 09:12:43;;;;;;;21.07;10.57;;;;;;;6.50;100.00;101165.13;12206104;19;20007;-79
2024/01/30 09:16:45;;;;;;;19.97;10.70;;;;;;;6.58;100.00;101178.72;12207437;19;21211;-78
2024/01/30 09:20:47;;;;;;;22.73;11.35;;;;;;;6.67;100.00;101185.78;12179081;19;20011;-80
2024/01/30 09:24:49;;;;;;;19.30;10.17;;;;;;;6.75;100.00;101174.72;12203742;19;20010;-81
2024/01/30 09:28:51;;;;;;;16.27;10.15;;;;;;;6.87;100.00;101183.31;12204662;19;20470;-82
2024/01/30 09:32:52;;;;;;;18.15;10.82;;;;;;;7.01;100.00;101196.09;12179794;19;20002;-81
2024/01/30 09:37:02;;;;;;;17.10;10.85;;;;;;;7.15;100.00;101193.53;12207036;19;20023;-81
2024/01/30 09:41:11;;;;;;;19.73;10.75;;;;;;;7.31;100.00;101187.78;12202021;19;20011;-80
2024/01/30 09:45:14;;;;;;;18.52;10.93;;;;;;;7.51;100.00;101186.09;12182740;19;20015;-78
2024/01/30 09:49:18;;;;;;;20.65;10.77;;;;;;;7.66;100.00;101180.53;12201016;19;20488;-81
2024/01/30 09:53:23;;;;;;;19.52;10.98;;;;;;;7.87;100.00;101182.41;12182088;19;20011;-81
2024/01/30 09:57:36;;;;;;;22.50;10.55;;;;;;;8.04;99.62;101193.94;12197111;19;20007;-79
2024/01/30 10:01:42;;;;;;;16.08;10.40;;;;;;;8.31;99.67;101188.66;12208172;19;20003;-79
2024/01/30 10:05:52;;;;;;;15.07;9.73;;;;;;;8.52;97.97;101185.84;12183592;19;20034;-79
2024/01/30 10:09:56;;;;;;;19.17;11.13;;;;;;;8.62;96.57;101186.31;12197819;19;20002;-79
2024/01/30 10:14:00;;;;;;;16.98;10.25;;;;;;;8.89;96.37;101183.69;12198665;19;20002;-79
2024/01/30 10:18:08;;;;;;;19.90;10.43;;;;;;;9.00;93.76;101185.84;12190523;19;20153;-79
2024/01/30 10:22:10;;;;;;;25.70;10.80;;;;;;;9.06;92.90;101182.28;12201629;19;20014;-79
2024/01/30 10:26:17;;;;;;;22.45;11.52;;;;;;;9.16;92.02;101181.91;12179811;19;20115;-79
2024/01/30 10:30:19;;;;;;;18.30;10.95;;;;;;;9.26;93.00;101182.34;12197587;19;20006;-80
2024/01/30 10:34:21;;;;;;;17.80;10.65;;;;;;;9.41;92.37;101182.16;12199506;19;20029;-79
2024/01/30 10:38:28;;;;;;;15.52;9.80;;;;;;;9.48;90.72;101171.16;12178028;19;20055;-79
2024/01/30 10:42:32;;;;;;;19.52;10.10;;;;;;;9.53;90.58;101166.72;12196064;19;20006;-78
2024/01/30 10:46:37;;;;;;;14.07;8.80;;;;;;;9.66;90.72;101170.56;12197622;19;20018;-79
2024/01/30 10:50:40;;;;;;;18.30;10.18;;;;;;;9.64;89.63;101164.41;12174362;19;20468;-78
2024/01/30 10:54:56;;;;;;;14.45;8.95;;;;;;;9.77;90.66;101167.19;12197884;19;20386;-78
2024/01/30 10:59:03;;;;;;;15.77;9.07;;;;;;;9.92;90.41;101161.47;12216443;19;20003;-79
2024/01/30 11:03:06;;;;;;;16.60;8.57;;;;;;;9.97;88.24;101154.25;12206710;19;20040;-80
2024/01/30 11:07:23;;;;;;;16.10;8.75;;;;;;;10.03;87.69;101163.56;12198479;19;20042;-80
2024/01/30 11:11:46;;;;;;;14.77;7.85;;;;;;;10.00;88.02;101162.09;12176229;19;20023;-78
2024/01/30 11:15:48;;;;;;;13.85;7.68;;;;;;;10.01;86.62;101165.69;12198132;19;20013;-79
2024/01/30 11:19:51;;;;;;;13.40;7.70;;;;;;;10.24;86.90;101166.09;12203064;19;20018;-79
2024/01/30 11:24:02;;;;;;;15.85;8.23;;;;;;;10.53;83.66;101172.19;12186710;19;20010;-81
2024/01/30 11:28:13;;;;;;;16.10;7.55;;;;;;;10.81;81.36;101176.56;12211597;19;20007;-81
2024/01/30 11:32:23;;;;;;;13.98;8.27;;;;;;;10.88;79.56;101172.69;12188003;19;20027;-79
2024/01/30 11:36:29;;;;;;;15.32;8.07;;;;;;;10.93;79.66;101161.00;12210114;19;20015;-79
2024/01/30 11:40:32;;;;;;;15.13;8.02;;;;;;;10.95;78.45;101156.97;12206601;19;20027;-79
2024/01/30 11:44:35;;;;;;;15.30;7.90;;;;;;;11.09;77.29;101148.63;12187930;19;20026;-79
2024/01/30 11:48:37;;;;;;;13.02;7.35;;;;;;;11.15;76.03;101139.47;12208830;19;20018;-78
2024/01/30 11:52:41;;;;;;;13.73;7.97;;;;;;;11.27;75.98;101136.84;12211583;19;20003;-78
2024/01/30 11:56:44;;;;;;;15.13;6.95;;;;;;;11.39;76.32;101132.28;12186493;19;20679;-80
2024/01/30 12:00:57;;;;;;;12.68;8.13;;;;;;;11.38;75.07;101125.94;12209095;19;20015;-80
2024/01/30 12:05:06;;;;;;;11.53;6.97;;;;;;;11.47;74.14;101120.16;12205282;19;20390;-80
2024/01/30 12:09:09;;;;;;;13.13;7.38;;;;;;;11.60;74.45;101101.59;12188073;19;20015;-80
2024/01/30 12:13:13;;;;;;;11.50;6.45;;;;;;;11.87;74.69;101117.94;12205653;19;20006;-79
2024/01/30 12:17:35;;;;;;;15.88;8.50;;;;;;;11.95;73.42;101114.88;12192724;19;20354;-79
2024/01/30 12:21:38;;;;;;;12.65;7.35;;;;;;;12.13;73.63;101114.06;12205729;19;20351;-80
2024/01/30 12:25:41;;;;;;;12.02;7.32;;;;;;;12.27;71.55;101112.84;12207041;19;20010;-80
2024/01/30 12:29:44;;;;;;;18.65;8.00;;;;;;;12.51;71.04;101113.00;12184858;19;20016;-79
2024/01/30 12:33:49;;;;;;;13.82;8.23;;;;;;;12.71;69.14;101121.06;12205964;19;20002;-79
2024/01/30 12:37:51;;;;;;;9.60;6.85;;;;;;;12.68;68.47;101113.25;12210525;19;20018;-79
2024/01/30 12:42:00;;;;;;;11.02;7.53;;;;;;;12.69;68.06;101113.00;12195405;19;20025;-80
2024/01/30 12:46:03;;;;;;;12.10;7.05;;;;;;;12.69;67.29;101110.22;12226311;19;20011;-80
2024/01/30 12:50:05;;;;;;;13.40;6.65;;;;;;;12.61;66.39;101106.94;12224563;19;20010;-80
2024/01/30 12:54:13;;;;;;;13.02;6.78;;;;;;;12.60;66.19;101111.63;12186484;19;20017;-80
2024/01/30 12:58:15;;;;;;;12.73;6.75;;;;;;;12.46;65.88;101107.31;12206825;19;20015;-80
2024/01/30 13:02:20;;;;;;;12.07;7.47;;;;;;;12.45;66.71;101105.63;12182124;19;20006;-79
2024/01/30 13:06:24;;;;;;;11.88;6.75;;;;;;;12.39;66.78;101110.16;12204288;19;20011;-79
2024/01/30 13:10:28;;;;;;;12.00;6.95;;;;;;;12.36;66.78;101105.09;12204379;19;20029;-81
2024/01/30 13:14:31;;;;;;;14.13;7.18;;;;;;;12.38;66.56;101102.97;12182844;19;20070;-80
2024/01/30 13:18:33;;;;;;;15.35;7.65;;;;;;;12.41;66.64;101109.94;12205402;19;20002;-80
2024/01/30 13:22:38;;;;;;;11.48;7.05;;;;;;;12.29;66.06;101105.19;12199488;19;20039;-79
2024/01/30 13:26:43;;;;;;;13.35;7.88;;;;;;;12.38;66.70;101105.72;12176370;19;20024;-81
2024/01/30 13:30:46;;;;;;;10.95;7.53;;;;;;;12.31;66.71;101102.16;12204675;19;20015;-80
2024/01/30 13:34:49;;;;;;;;;;;;;;;12.26;66.89;101100.13;12207160;19;20458;-80
2024/01/30 13:38:51;;;;;;;13.65;7.75;;;;;;;12.15;67.02;101089.81;12185854;19;20334;-80
2024/01/30 13:42:53;;;;;;;10.23;6.75;;;;;;;12.18;67.59;101081.06;12206265;19;20498;-81
2024/01/30 13:46:56;;;;;;;11.52;6.82;;;;;;;12.16;67.44;101087.88;12225426;19;20006;-81
2024/01/30 13:50:58;;;;;;;17.90;7.30;;;;;;;12.14;67.73;101079.00;12232879;19;20002;-80
2024/01/30 13:55:00;;;;;;;13.40;7.60;;;;;;;12.12;68.02;101076.47;12250989;19;20022;-80
2024/01/30 13:59:05;;;;;;;11.30;7.05;;;;;;;12.12;67.87;101081.97;12204679;19;20011;-79
2024/01/30 14:03:07;;;;;;;11.60;7.03;;;;;;;12.00;68.24;101081.91;12174673;19;20074;-80
2024/01/30 14:07:10;;;;;;;12.00;7.32;;;;;;;11.96;68.46;101079.84;12200461;19;20014;-81
2024/01/30 14:11:14;;;;;;;15.32;8.38;;;;;;;11.80;68.53;101075.69;12188443;19;20360;-79
2024/01/30 14:15:19;;;;;;;13.20;7.20;;;;;;;11.76;69.41;101083.59;12203416;19;20007;-81
2024/01/30 14:19:30;;;;;;;12.70;7.18;;;;;;;11.71;70.06;101086.19;12219611;19;20017;-81
2024/01/30 14:23:34;;;;;;;13.73;7.60;;;;;;;11.66;70.11;101090.69;12188624;19;20034;-79
2024/01/30 14:27:36;;;;;;;11.93;6.85;;;;;;;11.67;70.75;101090.47;12240028;19;20014;-80
2024/01/30 14:31:38;;;;;;;14.27;7.50;;;;;;;11.68;71.07;101086.63;12204551;19;20018;-81
2024/01/30 14:35:40;;;;;;;12.13;7.53;;;;;;;11.61;71.11;101102.41;12183316;19;20014;-80
2024/01/30 14:39:42;;;;;;;16.23;6.87;;;;;;;11.59;71.48;101102.63;12204707;19;20029;-80
2024/01/30 14:43:46;;;;;;;12.35;7.20;;;;;;;11.53;71.80;101110.97;12200463;19;20256;-80
2024/01/30 14:47:49;;;;;;;16.23;8.10;;;;;;;11.49;72.03;101115.25;12179383;19;20006;-82
2024/01/30 14:51:51;;;;;;;12.25;7.30;;;;;;;11.44;72.29;101115.91;12199011;19;20446;-80
2024/01/30 14:55:53;;;;;;;15.60;8.60;;;;;;;11.32;73.00;101110.28;12254047;19;20018;-80
2024/01/30 14:59:55;;;;;;;12.50;7.17;;;;;;;11.21;73.93;101105.47;12238594;19;19998;-80
2024/01/30 15:03:56;;;;;;;11.82;6.72;;;;;;;11.13;74.49;101097.47;12263157;19;20002;-81
2024/01/30 15:08:00;;;;;;;14.35;6.78;;;;;;;11.07;75.00;101095.59;12261858;19;20015;-80
2024/01/30 15:12:04;;;;;;;13.35;7.72;;;;;;;11.02;75.80;101107.28;12200894;19;20019;-81
2024/01/30 15:16:08;;;;;;;13.02;6.90;;;;;;;10.95;76.15;101099.06;12211260;19;20017;-81
2024/01/30 15:20:10;;;;;;;13.27;7.05;;;;;;;10.94;76.71;101102.03;12210060;19;20502;-80
2024/01/30 15:24:16;;;;;;;11.77;6.82;;;;;;;10.87;77.23;101113.09;12183907;19;20110;-80
2024/01/30 15:28:19;;;;;;;10.52;6.35;;;;;;;10.83;77.97;101109.09;12203982;19;20784;-81
2024/01/30 15:32:21;;;;;;;11.00;6.22;;;;;;;10.83;78.47;101113.78;12205443;19;20014;-79
2024/01/30 15:36:24;;;;;;;11.60;6.30;;;;;;;10.81;78.87;101116.72;12186325;19;20400;-80
2024/01/30 15:40:28;;;;;;;11.02;5.93;;;;;;;10.78;79.58;101114.41;12208058;19;20123;-80
2024/01/30 15:44:31;;;;;;;9.10;6.03;;;;;;;10.84;79.67;101119.06;12186420;19;20019;-80
2024/01/30 15:48:36;;;;;;;11.13;5.60;;;;;;;10.85;79.77;101120.72;12224560;19;20062;-80
2024/01/30 15:52:38;;;;;;;10.32;5.07;;;;;;;10.87;80.31;101135.16;12224369;19;20086;-79
2024/01/30 15:56:43;;;;;;;12.50;6.40;;;;;;;10.87;80.42;101128.81;12203072;19;20021;-80
2024/01/30 16:00:46;;;;;;;11.02;6.18;;;;;;;10.88;80.76;101130.47;12226028;19;20111;-80
2024/01/30 16:04:49;;;;;;;10.95;5.70;;;;;;;10.93;80.63;101138.94;12207039;19;20019;-80
2024/01/30 16:08:51;;;;;;;9.63;5.90;;;;;;;10.93;80.81;101144.47;12188469;19;20015;-79
2024/01/30 16:12:54;;;;;;;12.50;6.43;;;;;;;10.93;81.28;101142.56;12201726;19;20009;-80
2024/01/30 16:16:56;;;;;;;13.27;5.40;;;;;;;10.94;81.33;101138.72;12205771;19;20415;-80
2024/01/30 16:21:00;;;;;;;9.90;5.93;;;;;;;10.95;81.65;101137.66;12191802;19;20007;-80
2024/01/30 16:25:04;;;;;;;11.60;5.63;;;;;;;10.98;82.24;101141.06;12201646;19;20053;-80
2024/01/30 16:29:08;;;;;;;11.05;6.13;;;;;;;10.99;82.45;101148.25;12201544;19;20529;-80
2024/01/30 16:33:11;;;;;;;10.77;6.60;;;;;;;10.97;82.92;101148.47;12177192;19;20003;-79
2024/01/30 16:37:14;;;;;;;12.68;6.55;;;;;;;10.98;83.41;101157.63;12197286;19;20006;-80
2024/01/30 16:41:16;;;;;;;14.50;6.75;;;;;;;10.94;83.83;101155.25;12198135;19;20062;-80
2024/01/30 16:45:19;;;;;;;;;;;;;;;10.90;84.47;101162.28;12176916;19;20077;-79
2024/01/30 16:49:21;;;;;;;14.73;6.20;;;;;;;10.89;84.32;101166.13;12197109;19;19915;-80
2024/01/30 16:53:24;;;;;;;12.23;6.43;;;;;;;10.88;84.68;101161.66;12200246;19;20073;-80
2024/01/30 16:57:26;;;;;;;11.37;6.23;;;;;;;10.90;85.28;101167.81;12177853;19;20425;-79
2024/01/30 17:01:30;;;;;;;9.75;5.82;;;;;;;10.88;85.33;101172.69;12201343;19;20006;-80
2024/01/30 17:05:32;;;;;;;11.87;5.80;;;;;;;10.86;85.95;101172.09;12177043;19;20026;-80
2024/01/30 17:09:35;;;;;;;11.65;6.00;;;;;;;10.85;86.23;101178.66;12196161;19;20015;-79
2024/01/30 17:13:37;;;;;;;11.33;6.43;;;;;;;10.87;86.18;101192.22;12197513;19;20473;-79
2024/01/30 17:17:39;;;;;;;14.47;6.03;;;;;;;10.83;86.95;101194.56;12177590;19;20010;-79
2024/01/30 17:21:41;;;;;;;14.43;7.40;;;;;;;10.81;87.78;101193.94;12202818;19;20007;-80
2024/01/30 17:25:45;;;;;;;13.55;5.72;;;;;;;10.81;88.29;101198.63;12201768;19;20006;-80
2024/01/30 17:29:47;;;;;;;15.43;7.47;;;;;;;10.83;88.27;101205.59;12180434;19;20078;-80
2024/01/30 17:33:53;;;;;;;12.70;6.47;;;;;;;10.81;88.72;101210.47;12203021;19;20007;-79
2024/01/30 17:37:56;;;;;;;13.05;6.45;;;;;;;10.78;89.04;101210.91;12201642;19;20010;-79
2024/01/30 17:41:58;;;;;;;15.13;8.10;;;;;;;10.71;90.02;101224.72;12176083;19;20006;-80
2024/01/30 17:46:00;;;;;;;12.10;6.90;;;;;;;10.70;90.51;101235.97;12198885;19;20030;-80
2024/01/30 17:50:05;;;;;;;13.93;7.65;;;;;;;10.69;90.65;101237.03;12210722;19;20018;-81
2024/01/30 17:54:09;;;;;;;11.77;6.57;;;;;;;10.71;90.47;101241.28;12227106;19;19998;-79
2024/01/30 17:58:14;;;;;;;12.52;6.95;;;;;;;10.70;90.62;101247.00;12201291;19;20010;-81
2024/01/30 18:02:16;;;;;;;12.32;7.63;;;;;;;10.67;90.89;101250.19;12203588;19;20025;-79
2024/01/30 18:06:20;;;;;;;12.93;6.97;;;;;;;10.64;91.18;101258.88;12174396;19;20212;-79
2024/01/30 18:10:22;;;;;;;13.07;7.30;;;;;;;10.61;91.84;101267.59;12199507;19;20007;-79
2024/01/30 18:14:25;;;;;;;16.33;8.17;;;;;;;10.57;92.85;101267.16;12201063;19;20010;-79
2024/01/30 18:18:26;;;;;;;14.47;7.63;;;;;;;10.54;93.41;101266.75;12192895;19;20014;-79
2024/01/30 18:22:32;;;;;;;11.60;7.55;;;;;;;10.51;93.68;101269.94;12202925;19;20803;-79
2024/01/30 18:26:35;;;;;;;13.57;7.53;;;;;;;10.50;94.05;101285.63;12178816;19;20101;-79